sensor_id;sensor_type;location;lat;lon;timestamp;temperature;humidity
65040;HTU21D;51606;45.000;38.612;2022-10-31T00:01:13;12.65;77.27
65040;HTU21D;51606;45.000;38.612;2022-10-31T00:03:40;12.65;77.30
65040;HTU21D;51606;45.000;38.612;2022-10-31T00:06:06;12.66;77.35
65040;HTU21D;51606;45.000;38.612;2022-10-31T00:08:33;12.66;77.38
65040;HTU21D;51606;45.000;38.612;2022-10-31T00:10:59;12.70;77.37
65040;HTU21D;51606;45.000;38.612;2022-10-31T00:13:26;12.70;77.37
65040;HTU21D;51606;45.000;38.612;2022-10-31T00:15:52;12.71;77.43
65040;HTU21D;51606;45.000;38.612;2022-10-31T00:18:19;12.71;77.47
65040;HTU21D;51606;45.000;38.612;2022-10-31T00:20:45;12.73;77.47
65040;HTU21D;51606;45.000;38.612;2022-10-31T00:34:34;12.76;77.23
65040;HTU21D;51606;45.000;38.612;2022-10-31T00:37:00;12.74;77.26
65040;HTU21D;51606;45.000;38.612;2022-10-31T00:39:28;12.75;77.38
65040;HTU21D;51606;45.000;38.612;2022-10-31T00:42:00;12.76;77.47
65040;HTU21D;51606;45.000;38.612;2022-10-31T00:44:27;12.76;77.47
65040;HTU21D;51606;45.000;38.612;2022-10-31T00:46:53;12.75;77.55
65040;HTU21D;51606;45.000;38.612;2022-10-31T00:49:21;12.77;77.58
65040;HTU21D;51606;45.000;38.612;2022-10-31T00:51:47;12.77;77.63
65040;HTU21D;51606;45.000;38.612;2022-10-31T00:54:14;12.77;77.66
65040;HTU21D;51606;45.000;38.612;2022-10-31T00:56:50;12.78;77.72
65040;HTU21D;51606;45.000;38.612;2022-10-31T00:59:21;12.77;77.79
65040;HTU21D;51606;45.000;38.612;2022-10-31T01:01:48;12.78;77.81
65040;HTU21D;51606;45.000;38.612;2022-10-31T01:04:15;12.79;77.80
65040;HTU21D;51606;45.000;38.612;2022-10-31T01:06:41;12.80;77.82
65040;HTU21D;51606;45.000;38.612;2022-10-31T01:09:08;12.80;77.87
65040;HTU21D;51606;45.000;38.612;2022-10-31T01:11:34;12.80;77.90
65040;HTU21D;51606;45.000;38.612;2022-10-31T01:14:05;12.80;77.95
65040;HTU21D;51606;45.000;38.612;2022-10-31T01:16:35;12.79;78.03
65040;HTU21D;51606;45.000;38.612;2022-10-31T01:19:01;12.78;78.05
65040;HTU21D;51606;45.000;38.612;2022-10-31T01:21:29;12.78;78.09
65040;HTU21D;51606;45.000;38.612;2022-10-31T01:23:58;12.78;78.13
65040;HTU21D;51606;45.000;38.612;2022-10-31T01:26:27;12.77;78.20
65040;HTU21D;51606;45.000;38.612;2022-10-31T01:28:57;12.79;78.18
65040;HTU21D;51606;45.000;38.612;2022-10-31T01:31:28;12.79;78.19
65040;HTU21D;51606;45.000;38.612;2022-10-31T01:33:55;12.78;78.20
65040;HTU21D;51606;45.000;38.612;2022-10-31T01:36:28;12.80;78.23
65040;HTU21D;51606;45.000;38.612;2022-10-31T01:39:00;12.81;78.30
65040;HTU21D;51606;45.000;38.612;2022-10-31T01:41:29;12.80;78.30
65040;HTU21D;51606;45.000;38.612;2022-10-31T01:43:58;12.80;78.34
65040;HTU21D;51606;45.000;38.612;2022-10-31T01:46:27;12.80;78.34
65040;HTU21D;51606;45.000;38.612;2022-10-31T01:48:57;12.81;78.41
65040;HTU21D;51606;45.000;38.612;2022-10-31T01:51:32;12.82;78.46
65040;HTU21D;51606;45.000;38.612;2022-10-31T01:54:04;12.82;78.44
65040;HTU21D;51606;45.000;38.612;2022-10-31T01:56:33;12.84;78.47
65040;HTU21D;51606;45.000;38.612;2022-10-31T01:59:02;12.82;78.46
65040;HTU21D;51606;45.000;38.612;2022-10-31T02:01:33;12.84;78.49
65040;HTU21D;51606;45.000;38.612;2022-10-31T02:03:59;12.86;78.50
65040;HTU21D;51606;45.000;38.612;2022-10-31T02:06:43;12.86;78.56
65040;HTU21D;51606;45.000;38.612;2022-10-31T02:09:13;12.88;78.50
65040;HTU21D;51606;45.000;38.612;2022-10-31T02:11:41;12.88;78.53
65040;HTU21D;51606;45.000;38.612;2022-10-31T02:14:10;12.88;78.55
65040;HTU21D;51606;45.000;38.612;2022-10-31T02:16:37;12.88;78.56
65040;HTU21D;51606;45.000;38.612;2022-10-31T02:19:08;12.87;78.64
65040;HTU21D;51606;45.000;38.612;2022-10-31T02:22:01;12.86;78.74
65040;HTU21D;51606;45.000;38.612;2022-10-31T02:27:58;12.85;78.72
65040;HTU21D;51606;45.000;38.612;2022-10-31T02:30:49;12.82;78.72
65040;HTU21D;51606;45.000;38.612;2022-10-31T02:45:04;12.78;78.72
65040;HTU21D;51606;45.000;38.612;2022-10-31T02:47:28;12.76;78.73
65040;HTU21D;51606;45.000;38.612;2022-10-31T02:50:03;12.75;78.82
65040;HTU21D;51606;45.000;38.612;2022-10-31T02:52:33;12.72;78.89
65040;HTU21D;51606;45.000;38.612;2022-10-31T02:58:16;12.67;79.04
65040;HTU21D;51606;45.000;38.612;2022-10-31T03:06:35;12.71;78.95
65040;HTU21D;51606;45.000;38.612;2022-10-31T03:09:33;12.73;78.97
65040;HTU21D;51606;45.000;38.612;2022-10-31T03:17:05;12.75;79.00
65040;HTU21D;51606;45.000;38.612;2022-10-31T03:19:40;12.76;79.04
65040;HTU21D;51606;45.000;38.612;2022-10-31T03:22:15;12.77;79.12
65040;HTU21D;51606;45.000;38.612;2022-10-31T03:24:43;12.76;79.10
65040;HTU21D;51606;45.000;38.612;2022-10-31T03:27:14;12.76;79.14
65040;HTU21D;51606;45.000;38.612;2022-10-31T03:29:42;12.77;79.17
65040;HTU21D;51606;45.000;38.612;2022-10-31T03:32:16;12.78;79.22
65040;HTU21D;51606;45.000;38.612;2022-10-31T03:34:46;12.78;79.18
65040;HTU21D;51606;45.000;38.612;2022-10-31T03:37:17;12.80;79.23
65040;HTU21D;51606;45.000;38.612;2022-10-31T03:39:47;12.79;79.24
65040;HTU21D;51606;45.000;38.612;2022-10-31T03:42:21;12.80;79.30
65040;HTU21D;51606;45.000;38.612;2022-10-31T03:45:13;12.81;79.32
65040;HTU21D;51606;45.000;38.612;2022-10-31T03:47:42;12.79;79.28
65040;HTU21D;51606;45.000;38.612;2022-10-31T03:50:11;12.80;79.32
65040;HTU21D;51606;45.000;38.612;2022-10-31T03:52:49;12.79;79.35
65040;HTU21D;51606;45.000;38.612;2022-10-31T03:55:39;12.79;79.46
65040;HTU21D;51606;45.000;38.612;2022-10-31T03:58:09;12.79;79.42
65040;HTU21D;51606;45.000;38.612;2022-10-31T04:00:41;12.80;79.43
65040;HTU21D;51606;45.000;38.612;2022-10-31T04:03:22;12.81;79.43
65040;HTU21D;51606;45.000;38.612;2022-10-31T04:05:54;12.80;79.40
65040;HTU21D;51606;45.000;38.612;2022-10-31T04:08:26;12.79;79.53
65040;HTU21D;51606;45.000;38.612;2022-10-31T04:10:56;12.79;79.55
65040;HTU21D;51606;45.000;38.612;2022-10-31T04:13:46;12.82;79.59
65040;HTU21D;51606;45.000;38.612;2022-10-31T04:16:25;12.81;79.49
65040;HTU21D;51606;45.000;38.612;2022-10-31T04:18:52;12.78;79.57
65040;HTU21D;51606;45.000;38.612;2022-10-31T04:21:19;12.76;79.63
65040;HTU21D;51606;45.000;38.612;2022-10-31T04:23:45;12.73;79.75
65040;HTU21D;51606;45.000;38.612;2022-10-31T04:26:20;12.66;79.85
65040;HTU21D;51606;45.000;38.612;2022-10-31T04:28:47;12.61;80.01
65040;HTU21D;51606;45.000;38.612;2022-10-31T04:31:14;12.59;80.11
65040;HTU21D;51606;45.000;38.612;2022-10-31T04:33:42;12.60;80.11
65040;HTU21D;51606;45.000;38.612;2022-10-31T04:36:09;12.61;80.08
65040;HTU21D;51606;45.000;38.612;2022-10-31T04:38:36;12.66;80.01
65040;HTU21D;51606;45.000;38.612;2022-10-31T04:41:12;12.72;79.91
65040;HTU21D;51606;45.000;38.612;2022-10-31T04:44:08;12.78;79.79
65040;HTU21D;51606;45.000;38.612;2022-10-31T04:46:35;12.82;79.76
65040;HTU21D;51606;45.000;38.612;2022-10-31T04:49:03;12.92;79.71
65040;HTU21D;51606;45.000;38.612;2022-10-31T04:51:29;13.05;79.56
65040;HTU21D;51606;45.000;38.612;2022-10-31T04:53:56;13.26;79.48
65040;HTU21D;51606;45.000;38.612;2022-10-31T04:57:03;13.75;78.90
65040;HTU21D;51606;45.000;38.612;2022-10-31T04:59:35;14.30;78.47
65040;HTU21D;51606;45.000;38.612;2022-10-31T05:02:03;14.87;77.94
65040;HTU21D;51606;45.000;38.612;2022-10-31T05:04:45;15.17;77.23
65040;HTU21D;51606;45.000;38.612;2022-10-31T05:07:11;15.16;77.29
65040;HTU21D;51606;45.000;38.612;2022-10-31T05:09:38;15.07;77.60
65040;HTU21D;51606;45.000;38.612;2022-10-31T05:12:07;15.06;77.97
65040;HTU21D;51606;45.000;38.612;2022-10-31T05:15:18;15.39;77.60
65040;HTU21D;51606;45.000;38.612;2022-10-31T05:18:03;15.91;77.10
65040;HTU21D;51606;45.000;38.612;2022-10-31T05:20:59;16.76;75.63
65040;HTU21D;51606;45.000;38.612;2022-10-31T05:55:59;18.99;74.61
65040;HTU21D;51606;45.000;38.612;2022-10-31T05:58:26;19.14;74.68
65040;HTU21D;51606;45.000;38.612;2022-10-31T06:01:00;19.27;75.02
65040;HTU21D;51606;45.000;38.612;2022-10-31T06:03:27;19.53;75.26
65040;HTU21D;51606;45.000;38.612;2022-10-31T06:05:55;19.77;75.06
65040;HTU21D;51606;45.000;38.612;2022-10-31T06:08:25;19.75;74.92
65040;HTU21D;51606;45.000;38.612;2022-10-31T06:10:53;19.58;75.37
65040;HTU21D;51606;45.000;38.612;2022-10-31T06:13:30;19.58;76.21
65040;HTU21D;51606;45.000;38.612;2022-10-31T06:16:05;20.00;76.53
65040;HTU21D;51606;45.000;38.612;2022-10-31T06:18:35;20.51;76.58
65040;HTU21D;51606;45.000;38.612;2022-10-31T06:21:03;21.15;76.20
65040;HTU21D;51606;45.000;38.612;2022-10-31T06:23:29;21.72;75.83
65040;HTU21D;51606;45.000;38.612;2022-10-31T06:26:15;22.02;75.43
65040;HTU21D;51606;45.000;38.612;2022-10-31T06:28:42;22.16;75.23
65040;HTU21D;51606;45.000;38.612;2022-10-31T06:31:16;22.65;74.53
65040;HTU21D;51606;45.000;38.612;2022-10-31T06:33:43;23.41;73.19
65040;HTU21D;51606;45.000;38.612;2022-10-31T06:36:10;23.91;71.93
65040;HTU21D;51606;45.000;38.612;2022-10-31T06:38:36;24.33;71.03
65040;HTU21D;51606;45.000;38.612;2022-10-31T06:41:06;24.61;70.33
65040;HTU21D;51606;45.000;38.612;2022-10-31T06:43:46;25.19;69.32
65040;HTU21D;51606;45.000;38.612;2022-10-31T06:46:28;25.79;68.30
65040;HTU21D;51606;45.000;38.612;2022-10-31T06:49:07;25.66;68.32
65040;HTU21D;51606;45.000;38.612;2022-10-31T06:51:50;25.83;68.02
65040;HTU21D;51606;45.000;38.612;2022-10-31T06:54:17;26.23;67.06
65040;HTU21D;51606;45.000;38.612;2022-10-31T06:56:47;26.72;66.01
65040;HTU21D;51606;45.000;38.612;2022-10-31T06:59:14;27.04;65.58
65040;HTU21D;51606;45.000;38.612;2022-10-31T07:02:10;27.56;64.87
65040;HTU21D;51606;45.000;38.612;2022-10-31T07:04:39;28.17;63.72
65040;HTU21D;51606;45.000;38.612;2022-10-31T07:07:05;28.64;62.84
65040;HTU21D;51606;45.000;38.612;2022-10-31T07:09:33;29.20;61.98
65040;HTU21D;51606;45.000;38.612;2022-10-31T07:12:03;29.71;60.99
65040;HTU21D;51606;45.000;38.612;2022-10-31T07:14:31;29.95;60.23
65040;HTU21D;51606;45.000;38.612;2022-10-31T07:16:57;30.19;59.91
65040;HTU21D;51606;45.000;38.612;2022-10-31T07:19:31;30.19;59.81
65040;HTU21D;51606;45.000;38.612;2022-10-31T07:21:58;29.74;59.39
65040;HTU21D;51606;45.000;38.612;2022-10-31T07:24:27;29.01;60.02
65040;HTU21D;51606;45.000;38.612;2022-10-31T07:27:11;28.85;59.99
65040;HTU21D;51606;45.000;38.612;2022-10-31T07:29:38;29.52;59.40
65040;HTU21D;51606;45.000;38.612;2022-10-31T07:32:04;29.92;58.11
65040;HTU21D;51606;45.000;38.612;2022-10-31T07:34:33;30.41;57.39
65040;HTU21D;51606;45.000;38.612;2022-10-31T07:37:18;30.40;56.55
65040;HTU21D;51606;45.000;38.612;2022-10-31T07:39:44;29.27;57.04
65040;HTU21D;51606;45.000;38.612;2022-10-31T07:42:11;28.30;57.96
65040;HTU21D;51606;45.000;38.612;2022-10-31T07:44:42;27.20;59.07
65040;HTU21D;51606;45.000;38.612;2022-10-31T07:47:27;26.12;59.84
65040;HTU21D;51606;45.000;38.612;2022-10-31T07:50:15;24.82;61.23
65040;HTU21D;51606;45.000;38.612;2022-10-31T07:53:05;23.75;62.35
65040;HTU21D;51606;45.000;38.612;2022-10-31T07:55:55;22.92;63.47
65040;HTU21D;51606;45.000;38.612;2022-10-31T07:58:28;22.37;63.34
65040;HTU21D;51606;45.000;38.612;2022-10-31T08:00:58;21.97;64.05
65040;HTU21D;51606;45.000;38.612;2022-10-31T08:03:33;22.92;62.71
65040;HTU21D;51606;45.000;38.612;2022-10-31T08:06:05;23.84;61.14
65040;HTU21D;51606;45.000;38.612;2022-10-31T08:08:50;24.33;60.32
65040;HTU21D;51606;45.000;38.612;2022-10-31T08:11:18;24.44;60.20
65040;HTU21D;51606;45.000;38.612;2022-10-31T08:13:44;24.77;59.82
65040;HTU21D;51606;45.000;38.612;2022-10-31T08:16:14;24.94;59.39
65040;HTU21D;51606;45.000;38.612;2022-10-31T08:18:50;25.24;59.45
65040;HTU21D;51606;45.000;38.612;2022-10-31T08:21:17;25.16;58.98
65040;HTU21D;51606;45.000;38.612;2022-10-31T08:23:45;24.48;59.28
65040;HTU21D;51606;45.000;38.612;2022-10-31T08:26:14;24.32;59.49
65040;HTU21D;51606;45.000;38.612;2022-10-31T08:28:41;24.40;59.19
65040;HTU21D;51606;45.000;38.612;2022-10-31T08:31:07;24.32;58.73
65040;HTU21D;51606;45.000;38.612;2022-10-31T08:33:39;23.98;59.02
65040;HTU21D;51606;45.000;38.612;2022-10-31T08:36:23;23.39;59.09
65040;HTU21D;51606;45.000;38.612;2022-10-31T08:38:53;22.64;60.52
65040;HTU21D;51606;45.000;38.612;2022-10-31T08:41:19;22.68;60.60
65040;HTU21D;51606;45.000;38.612;2022-10-31T08:43:46;22.34;60.47
65040;HTU21D;51606;45.000;38.612;2022-10-31T08:46:15;21.62;61.12
65040;HTU21D;51606;45.000;38.612;2022-10-31T08:48:44;21.08;61.60
65040;HTU21D;51606;45.000;38.612;2022-10-31T08:51:10;20.44;62.18
65040;HTU21D;51606;45.000;38.612;2022-10-31T08:53:37;20.03;62.78
65040;HTU21D;51606;45.000;38.612;2022-10-31T08:56:30;19.82;62.95
65040;HTU21D;51606;45.000;38.612;2022-10-31T08:58:56;19.90;62.76
65040;HTU21D;51606;45.000;38.612;2022-10-31T09:01:49;20.56;62.21
65040;HTU21D;51606;45.000;38.612;2022-10-31T09:04:16;20.94;61.57
65040;HTU21D;51606;45.000;38.612;2022-10-31T09:06:43;20.92;61.45
65040;HTU21D;51606;45.000;38.612;2022-10-31T09:09:09;20.90;61.83
65040;HTU21D;51606;45.000;38.612;2022-10-31T09:11:37;21.37;61.69
65040;HTU21D;51606;45.000;38.612;2022-10-31T09:14:35;21.96;61.20
65040;HTU21D;51606;45.000;38.612;2022-10-31T09:17:21;22.37;61.10
65040;HTU21D;51606;45.000;38.612;2022-10-31T09:20:09;22.75;60.82
65040;HTU21D;51606;45.000;38.612;2022-10-31T09:22:35;22.93;60.75
65040;HTU21D;51606;45.000;38.612;2022-10-31T09:25:02;23.08;60.60
65040;HTU21D;51606;45.000;38.612;2022-10-31T09:27:28;23.14;60.47
65040;HTU21D;51606;45.000;38.612;2022-10-31T09:29:56;23.36;60.55
65040;HTU21D;51606;45.000;38.612;2022-10-31T09:32:23;23.50;60.13
65040;HTU21D;51606;45.000;38.612;2022-10-31T09:34:50;23.54;59.92
65040;HTU21D;51606;45.000;38.612;2022-10-31T09:37:19;23.51;59.66
65040;HTU21D;51606;45.000;38.612;2022-10-31T09:39:45;23.41;59.17
65040;HTU21D;51606;45.000;38.612;2022-10-31T09:42:30;23.14;58.72
65040;HTU21D;51606;45.000;38.612;2022-10-31T09:45:07;22.57;58.64
65040;HTU21D;51606;45.000;38.612;2022-10-31T09:47:47;21.92;58.96
65040;HTU21D;51606;45.000;38.612;2022-10-31T09:51:25;21.25;58.92
65040;HTU21D;51606;45.000;38.612;2022-10-31T09:54:14;20.63;59.25
65040;HTU21D;51606;45.000;38.612;2022-10-31T09:56:43;20.20;59.43
65040;HTU21D;51606;45.000;38.612;2022-10-31T09:59:23;19.92;59.51
65040;HTU21D;51606;45.000;38.612;2022-10-31T10:13:53;18.97;59.54
65040;HTU21D;51606;45.000;38.612;2022-10-31T10:19:57;18.58;59.76
65040;HTU21D;51606;45.000;38.612;2022-10-31T10:22:43;18.44;59.86
65040;HTU21D;51606;45.000;38.612;2022-10-31T10:25:15;18.35;59.93
65040;HTU21D;51606;45.000;38.612;2022-10-31T10:27:58;18.32;59.99
65040;HTU21D;51606;45.000;38.612;2022-10-31T10:30:46;18.26;60.08
65040;HTU21D;51606;45.000;38.612;2022-10-31T10:33:40;18.20;60.16
65040;HTU21D;51606;45.000;38.612;2022-10-31T10:38:55;18.19;60.32
65040;HTU21D;51606;45.000;38.612;2022-10-31T10:41:29;18.13;60.27
65040;HTU21D;51606;45.000;38.612;2022-10-31T10:43:57;18.02;60.44
65040;HTU21D;51606;45.000;38.612;2022-10-31T10:52:37;17.77;60.81
65040;HTU21D;51606;45.000;38.612;2022-10-31T10:55:22;17.69;60.86
65040;HTU21D;51606;45.000;38.612;2022-10-31T10:57:53;17.59;60.93
65040;HTU21D;51606;45.000;38.612;2022-10-31T11:00:27;17.53;60.97
65040;HTU21D;51606;45.000;38.612;2022-10-31T11:02:56;17.47;61.03
65040;HTU21D;51606;45.000;38.612;2022-10-31T11:07:52;17.43;61.05
65040;HTU21D;51606;45.000;38.612;2022-10-31T11:10:18;17.35;61.09
65040;HTU21D;51606;45.000;38.612;2022-10-31T11:12:57;17.30;61.13
65040;HTU21D;51606;45.000;38.612;2022-10-31T11:15:26;17.23;61.19
65040;HTU21D;51606;45.000;38.612;2022-10-31T11:17:55;17.20;61.25
65040;HTU21D;51606;45.000;38.612;2022-10-31T11:20:34;17.17;61.29
65040;HTU21D;51606;45.000;38.612;2022-10-31T11:23:14;17.15;61.33
65040;HTU21D;51606;45.000;38.612;2022-10-31T11:26:03;17.10;61.40
65040;HTU21D;51606;45.000;38.612;2022-10-31T11:28:31;17.07;61.44
65040;HTU21D;51606;45.000;38.612;2022-10-31T11:31:13;17.04;61.54
65040;HTU21D;51606;45.000;38.612;2022-10-31T11:36:22;17.02;61.70
65040;HTU21D;51606;45.000;38.612;2022-10-31T11:38:50;17.04;61.70
65040;HTU21D;51606;45.000;38.612;2022-10-31T11:44:14;17.30;61.46
65040;HTU21D;51606;45.000;38.612;2022-10-31T11:46:50;17.32;61.43
65040;HTU21D;51606;45.000;38.612;2022-10-31T11:49:28;17.28;61.59
65040;HTU21D;51606;45.000;38.612;2022-10-31T11:51:58;17.25;61.73
65040;HTU21D;51606;45.000;38.612;2022-10-31T11:54:36;17.28;61.84
65040;HTU21D;51606;45.000;38.612;2022-10-31T12:05:17;17.09;62.47
65040;HTU21D;51606;45.000;38.612;2022-10-31T12:07:46;17.02;62.67
65040;HTU21D;51606;45.000;38.612;2022-10-31T12:10:13;16.95;62.80
65040;HTU21D;51606;45.000;38.612;2022-10-31T12:23:19;16.62;63.47
65040;HTU21D;51606;45.000;38.612;2022-10-31T12:26:14;16.69;63.46
65040;HTU21D;51606;45.000;38.612;2022-10-31T12:35:01;16.59;63.64
65040;HTU21D;51606;45.000;38.612;2022-10-31T12:37:51;16.55;63.79
65040;HTU21D;51606;45.000;38.612;2022-10-31T12:40:48;16.50;63.90
65040;HTU21D;51606;45.000;38.612;2022-10-31T12:43:41;16.45;64.03
65040;HTU21D;51606;45.000;38.612;2022-10-31T12:49:42;16.31;64.30
65040;HTU21D;51606;45.000;38.612;2022-10-31T12:52:39;16.20;64.50
65040;HTU21D;51606;45.000;38.612;2022-10-31T12:58:24;16.05;64.77
65040;HTU21D;51606;45.000;38.612;2022-10-31T13:03:52;15.89;64.95
65040;HTU21D;51606;45.000;38.612;2022-10-31T13:06:27;15.84;65.01
65040;HTU21D;51606;45.000;38.612;2022-10-31T13:09:01;15.77;65.11
65040;HTU21D;51606;45.000;38.612;2022-10-31T13:11:42;15.71;65.21
65040;HTU21D;51606;45.000;38.612;2022-10-31T13:14:34;15.60;65.29
65040;HTU21D;51606;45.000;38.612;2022-10-31T13:17:04;15.48;65.40
65040;HTU21D;51606;45.000;38.612;2022-10-31T13:19:39;15.39;65.56
65040;HTU21D;51606;45.000;38.612;2022-10-31T13:22:16;15.30;65.66
65040;HTU21D;51606;45.000;38.612;2022-10-31T13:25:03;15.27;65.69
65040;HTU21D;51606;45.000;38.612;2022-10-31T13:27:42;15.22;65.77
65040;HTU21D;51606;45.000;38.612;2022-10-31T13:30:18;15.14;65.86
65040;HTU21D;51606;45.000;38.612;2022-10-31T13:36:07;14.91;66.07
65040;HTU21D;51606;45.000;38.612;2022-10-31T13:44:10;14.60;66.28
65040;HTU21D;51606;45.000;38.612;2022-10-31T13:46:42;14.49;66.49
65040;HTU21D;51606;45.000;38.612;2022-10-31T13:54:46;14.22;66.90
65040;HTU21D;51606;45.000;38.612;2022-10-31T14:02:49;13.98;67.20
65040;HTU21D;51606;45.000;38.612;2022-10-31T14:05:25;13.93;67.27
65040;HTU21D;51606;45.000;38.612;2022-10-31T14:07:56;13.84;67.40
65040;HTU21D;51606;45.000;38.612;2022-10-31T14:10:32;13.78;67.47
65040;HTU21D;51606;45.000;38.612;2022-10-31T14:16:07;13.62;67.52
65040;HTU21D;51606;45.000;38.612;2022-10-31T14:18:47;13.53;67.61
65040;HTU21D;51606;45.000;38.612;2022-10-31T14:21:26;13.43;67.72
65040;HTU21D;51606;45.000;38.612;2022-10-31T14:23:55;13.26;67.94
65040;HTU21D;51606;45.000;38.612;2022-10-31T14:28:59;12.89;68.54
65040;HTU21D;51606;45.000;38.612;2022-10-31T14:34:34;12.58;68.98
65040;HTU21D;51606;45.000;38.612;2022-10-31T14:51:10;12.48;68.77
65040;HTU21D;51606;45.000;38.612;2022-10-31T14:53:56;12.44;68.81
65040;HTU21D;51606;45.000;38.612;2022-10-31T14:56:26;12.33;68.87
65040;HTU21D;51606;45.000;38.612;2022-10-31T14:58:57;12.17;69.12
65040;HTU21D;51606;45.000;38.612;2022-10-31T15:01:35;12.00;69.42
65040;HTU21D;51606;45.000;38.612;2022-10-31T15:04:20;11.86;69.64
65040;HTU21D;51606;45.000;38.612;2022-10-31T15:09:34;11.58;69.96
65040;HTU21D;51606;45.000;38.612;2022-10-31T15:12:25;11.46;70.11
65040;HTU21D;51606;45.000;38.612;2022-10-31T15:14:52;11.33;70.16
65040;HTU21D;51606;45.000;38.612;2022-10-31T15:17:20;11.27;70.24
65040;HTU21D;51606;45.000;38.612;2022-10-31T15:19:47;11.24;70.29
65040;HTU21D;51606;45.000;38.612;2022-10-31T15:22:18;11.26;70.24
65040;HTU21D;51606;45.000;38.612;2022-10-31T15:24:45;11.28;70.06
65040;HTU21D;51606;45.000;38.612;2022-10-31T15:27:16;11.28;70.16
65040;HTU21D;51606;45.000;38.612;2022-10-31T15:29:53;11.29;70.21
65040;HTU21D;51606;45.000;38.612;2022-10-31T15:32:24;11.29;70.18
65040;HTU21D;51606;45.000;38.612;2022-10-31T15:34:52;11.33;70.19
65040;HTU21D;51606;45.000;38.612;2022-10-31T15:37:21;11.37;70.03
65040;HTU21D;51606;45.000;38.612;2022-10-31T15:39:49;11.40;69.90
65040;HTU21D;51606;45.000;38.612;2022-10-31T15:42:25;11.43;69.87
65040;HTU21D;51606;45.000;38.612;2022-10-31T15:47:31;11.41;69.78
65040;HTU21D;51606;45.000;38.612;2022-10-31T15:49:59;11.38;69.82
65040;HTU21D;51606;45.000;38.612;2022-10-31T15:52:41;11.36;69.91
65040;HTU21D;51606;45.000;38.612;2022-10-31T15:57:43;11.30;70.00
65040;HTU21D;51606;45.000;38.612;2022-10-31T16:00:30;11.27;70.05
65040;HTU21D;51606;45.000;38.612;2022-10-31T16:05:52;11.22;70.11
65040;HTU21D;51606;45.000;38.612;2022-10-31T16:08:35;11.19;70.18
65040;HTU21D;51606;45.000;38.612;2022-10-31T16:14:02;11.12;70.26
65040;HTU21D;51606;45.000;38.612;2022-10-31T16:16:31;11.10;70.25
65040;HTU21D;51606;45.000;38.612;2022-10-31T16:18:59;11.07;70.29
65040;HTU21D;51606;45.000;38.612;2022-10-31T16:21:30;11.04;70.34
65040;HTU21D;51606;45.000;38.612;2022-10-31T16:24:32;10.97;70.44
65040;HTU21D;51606;45.000;38.612;2022-10-31T16:27:22;10.81;70.61
65040;HTU21D;51606;45.000;38.612;2022-10-31T16:29:55;10.62;70.87
65040;HTU21D;51606;45.000;38.612;2022-10-31T16:32:50;10.46;71.18
65040;HTU21D;51606;45.000;38.612;2022-10-31T16:35:33;10.40;71.26
65040;HTU21D;51606;45.000;38.612;2022-10-31T16:38:00;10.41;71.15
65040;HTU21D;51606;45.000;38.612;2022-10-31T16:40:27;10.45;71.06
65040;HTU21D;51606;45.000;38.612;2022-10-31T16:42:53;10.49;70.98
65040;HTU21D;51606;45.000;38.612;2022-10-31T16:45:24;10.52;70.94
65040;HTU21D;51606;45.000;38.612;2022-10-31T16:47:51;10.51;70.89
65040;HTU21D;51606;45.000;38.612;2022-10-31T16:50:26;10.43;71.00
65040;HTU21D;51606;45.000;38.612;2022-10-31T16:52:53;10.35;71.15
65040;HTU21D;51606;45.000;38.612;2022-10-31T16:55:20;10.26;71.26
65040;HTU21D;51606;45.000;38.612;2022-10-31T16:57:52;10.20;71.35
65040;HTU21D;51606;45.000;38.612;2022-10-31T17:00:23;10.16;71.41
65040;HTU21D;51606;45.000;38.612;2022-10-31T17:02:51;10.13;71.42
65040;HTU21D;51606;45.000;38.612;2022-10-31T17:05:19;10.11;71.40
65040;HTU21D;51606;45.000;38.612;2022-10-31T17:07:47;10.08;71.38
65040;HTU21D;51606;45.000;38.612;2022-10-31T17:10:16;10.04;71.45
65040;HTU21D;51606;45.000;38.612;2022-10-31T17:12:47;10.04;71.45
65040;HTU21D;51606;45.000;38.612;2022-10-31T17:15:18;10.09;71.40
65040;HTU21D;51606;45.000;38.612;2022-10-31T17:17:45;10.11;71.28
65040;HTU21D;51606;45.000;38.612;2022-10-31T17:22:44;10.16;71.20
65040;HTU21D;51606;45.000;38.612;2022-10-31T17:25:20;10.20;71.24
65040;HTU21D;51606;45.000;38.612;2022-10-31T17:27:48;10.22;71.18
65040;HTU21D;51606;45.000;38.612;2022-10-31T17:30:15;10.23;71.19
65040;HTU21D;51606;45.000;38.612;2022-10-31T17:32:45;10.24;71.17
65040;HTU21D;51606;45.000;38.612;2022-10-31T17:35:12;10.23;71.18
65040;HTU21D;51606;45.000;38.612;2022-10-31T17:37:40;10.19;71.24
65040;HTU21D;51606;45.000;38.612;2022-10-31T17:40:15;10.16;71.32
65040;HTU21D;51606;45.000;38.612;2022-10-31T17:42:56;10.10;71.35
65040;HTU21D;51606;45.000;38.612;2022-10-31T17:45:27;10.06;71.36
65040;HTU21D;51606;45.000;38.612;2022-10-31T17:47:54;10.01;71.42
65040;HTU21D;51606;45.000;38.612;2022-10-31T17:50:22;9.93;71.52
65040;HTU21D;51606;45.000;38.612;2022-10-31T17:52:49;9.78;71.69
65040;HTU21D;51606;45.000;38.612;2022-10-31T17:55:16;9.61;71.93
65040;HTU21D;51606;45.000;38.612;2022-10-31T17:57:43;9.45;72.14
65040;HTU21D;51606;45.000;38.612;2022-10-31T18:00:14;9.32;72.28
65040;HTU21D;51606;45.000;38.612;2022-10-31T18:02:40;9.16;72.38
65040;HTU21D;51606;45.000;38.612;2022-10-31T18:05:07;9.01;72.48
65040;HTU21D;51606;45.000;38.612;2022-10-31T18:15:29;8.37;72.90
65040;HTU21D;51606;45.000;38.612;2022-10-31T18:17:55;8.26;72.95
65040;HTU21D;51606;45.000;38.612;2022-10-31T18:20:22;8.14;72.94
65040;HTU21D;51606;45.000;38.612;2022-10-31T18:22:48;8.04;72.99
65040;HTU21D;51606;45.000;38.612;2022-10-31T18:25:14;7.93;73.02
65040;HTU21D;51606;45.000;38.612;2022-10-31T18:27:40;7.85;73.01
65040;HTU21D;51606;45.000;38.612;2022-10-31T18:30:07;7.73;73.04
65040;HTU21D;51606;45.000;38.612;2022-10-31T18:32:34;7.65;73.06
65040;HTU21D;51606;45.000;38.612;2022-10-31T18:35:01;7.55;73.05
65040;HTU21D;51606;45.000;38.612;2022-10-31T18:37:27;7.47;73.07
65040;HTU21D;51606;45.000;38.612;2022-10-31T18:39:54;7.38;73.12
65040;HTU21D;51606;45.000;38.612;2022-10-31T18:42:20;7.31;73.09
65040;HTU21D;51606;45.000;38.612;2022-10-31T18:44:46;7.24;73.19
65040;HTU21D;51606;45.000;38.612;2022-10-31T18:47:13;7.20;73.15
65040;HTU21D;51606;45.000;38.612;2022-10-31T18:49:39;7.15;73.11
65040;HTU21D;51606;45.000;38.612;2022-10-31T18:52:05;7.11;73.05
65040;HTU21D;51606;45.000;38.612;2022-10-31T18:54:32;7.07;72.99
65040;HTU21D;51606;45.000;38.612;2022-10-31T18:56:58;7.02;73.00
65040;HTU21D;51606;45.000;38.612;2022-10-31T18:59:24;6.97;72.99
65040;HTU21D;51606;45.000;38.612;2022-10-31T19:01:51;6.94;72.99
65040;HTU21D;51606;45.000;38.612;2022-10-31T19:04:17;6.90;72.94